Time;durP1;ratioP1;P1;durP2;ratioP2;P2;SDS_P1;SDS_P2;PMS_P1;PMS_P2;Temp;Humidity;BMP_temperature;BMP_pressure;BME280_temperature;BME280_humidity;BME280_pressure;Samples;Min_cycle;Max_cycle;Signal;HPM_P1;HPM_P2
2024/03/05 00:00:14;;;;;;;5.82;1.50;;;25.80;46.30;;;;;;5109736;28;20065;-56
2024/03/05 00:02:43;;;;;;;7.15;1.67;;;25.30;46.50;;;;;;5109400;28;20114;-52
2024/03/05 00:05:13;;;;;;;5.55;1.40;;;25.30;47.20;;;;;;5108556;28;20072;-49
2024/03/05 00:07:41;;;;;;;4.88;1.67;;;25.40;47.00;;;;;;5105656;27;20076;-51
2024/03/05 00:10:07;;;;;;;8.43;2.15;;;25.50;46.60;;;;;;5108513;28;20072;-50
2024/03/05 00:12:34;;;;;;;9.25;1.42;;;25.60;46.50;;;;;;5108277;28;20072;-57
2024/03/05 00:15:01;;;;;;;11.60;1.70;;;25.60;46.70;;;;;;5109962;28;20060;-53
2024/03/05 00:17:28;;;;;;;8.15;1.40;;;25.60;46.60;;;;;;5094536;28;20546;-53
2024/03/05 00:19:54;;;;;;;3.47;1.20;;;25.70;46.40;;;;;;5102357;28;20141;-54
2024/03/05 00:22:21;;;;;;;6.78;1.05;;;25.50;46.10;;;;;;5095367;28;20124;-52
2024/03/05 00:24:47;;;;;;;5.05;1.77;;;25.20;46.10;;;;;;5105620;28;20076;-51
2024/03/05 00:27:14;;;;;;;7.47;1.48;;;25.20;46.20;;;;;;5106786;28;20518;-51
2024/03/05 00:29:43;;;;;;;6.65;1.00;;;25.30;46.00;;;;;;5105079;28;20092;-52
2024/03/05 00:32:10;;;;;;;6.47;1.40;;;24.90;46.20;;;;;;5102977;28;20077;-53
2024/03/05 00:34:36;;;;;;;6.82;1.38;;;24.90;46.50;;;;;;5096412;28;20162;-53
2024/03/05 00:37:02;;;;;;;7.97;1.80;;;25.10;46.70;;;;;;5101797;28;20117;-50
2024/03/05 00:39:29;;;;;;;5.90;1.30;;;25.20;46.80;;;;;;5105091;28;20080;-54
2024/03/05 00:41:55;;;;;;;5.85;1.83;;;25.10;46.10;;;;;;5109302;28;20128;-49
2024/03/05 00:44:22;;;;;;;8.50;1.75;;;25.00;46.20;;;;;;5107615;28;20072;-50
2024/03/05 00:46:48;;;;;;;10.25;1.80;;;24.80;45.90;;;;;;5108075;28;20095;-53
2024/03/05 00:49:15;;;;;;;13.52;1.95;;;24.70;46.20;;;;;;5105133;28;20336;-52
2024/03/05 00:51:41;;;;;;;7.22;1.90;;;24.60;46.10;;;;;;5106783;28;21138;-51
2024/03/05 00:54:08;;;;;;;10.80;2.97;;;24.30;46.60;;;;;;5107171;28;20072;-48
2024/03/05 00:56:34;;;;;;;8.90;2.50;;;24.20;47.30;;;;;;5106254;28;20141;-52
2024/03/05 00:59:01;;;;;;;10.05;2.85;;;24.10;47.80;;;;;;5093168;28;20085;-50
2024/03/05 01:01:27;;;;;;;17.83;1.90;;;24.20;48.00;;;;;;5103155;28;20104;-49
2024/03/05 01:03:55;;;;;;;9.20;1.88;;;24.40;47.60;;;;;;5100070;28;20086;-52
2024/03/05 01:06:21;;;;;;;13.35;3.17;;;24.90;47.00;;;;;;5109457;28;20079;-49
2024/03/05 01:08:48;;;;;;;21.30;10.73;;;25.20;46.60;;;;;;5109091;28;20155;-51
2024/03/05 01:11:14;;;;;;;23.73;14.52;;;25.50;46.00;;;;;;5108173;28;20064;-52
2024/03/05 01:13:41;;;;;;;5.13;1.80;;;25.50;45.60;;;;;;5101862;28;20072;-52
2024/03/05 01:16:09;;;;;;;34.22;17.40;;;25.60;45.40;;;;;;5107772;28;20064;-51
2024/03/05 01:18:36;;;;;;;7.68;1.20;;;25.60;45.60;;;;;;5106393;28;20112;-47
2024/03/05 01:21:05;;;;;;;7.85;1.50;;;25.70;45.60;;;;;;5097605;28;21010;-46
2024/03/05 01:23:33;;;;;;;8.50;1.60;;;25.30;45.30;;;;;;5110498;27;20064;-51
2024/03/05 01:26:00;;;;;;;15.43;2.35;;;25.20;45.90;;;;;;5110694;27;20076;-49
2024/03/05 01:28:29;;;;;;;15.85;2.20;;;25.30;45.90;;;;;;5106260;28;20958;-57
2024/03/05 01:30:58;;;;;;;7.88;2.00;;;25.10;46.20;;;;;;5103928;28;20087;-52
2024/03/05 01:33:25;;;;;;;14.68;3.95;;;25.20;46.00;;;;;;5104076;28;20125;-48
2024/03/05 01:35:52;;;;;;;18.67;3.60;;;24.90;46.20;;;;;;5104768;28;20529;-51
2024/03/05 01:38:19;;;;;;;8.73;2.17;;;24.90;46.60;;;;;;5107619;28;20508;-49
2024/03/05 01:40:46;;;;;;;19.33;2.20;;;24.60;46.80;;;;;;5094034;28;20094;-51
2024/03/05 01:43:12;;;;;;;16.83;2.03;;;24.50;47.20;;;;;;5108562;28;20187;-49
2024/03/05 01:45:38;;;;;;;12.50;3.13;;;24.50;47.30;;;;;;5109142;28;20060;-48
2024/03/05 01:48:05;;;;;;;10.82;3.92;;;24.40;47.40;;;;;;5108929;28;20087;-52
2024/03/05 01:50:37;;;;;;;16.67;6.50;;;24.40;47.60;;;;;;5107722;28;20090;-48
2024/03/05 01:53:07;;;;;;;25.45;14.68;;;24.20;47.80;;;;;;5107816;28;20068;-49
2024/03/05 01:55:35;;;;;;;32.63;18.77;;;24.00;48.00;;;;;;5107476;28;20110;-49
2024/03/05 01:58:03;;;;;;;31.33;18.38;;;23.80;48.10;;;;;;5102271;28;20522;-50
2024/03/05 02:00:31;;;;;;;11.50;2.20;;;23.70;48.20;;;;;;5089484;28;20621;-49
2024/03/05 02:02:57;;;;;;;12.23;2.80;;;23.70;48.50;;;;;;5103585;28;20103;-48
2024/03/05 02:05:24;;;;;;;30.10;20.05;;;23.60;48.70;;;;;;5106323;28;20106;-51
2024/03/05 02:07:54;;;;;;;19.85;7.13;;;23.50;48.90;;;;;;5097337;28;20123;-52
2024/03/05 02:10:21;;;;;;;35.10;30.30;;;23.70;48.90;;;;;;5102366;28;20080;-51
2024/03/05 02:12:48;;;;;;;17.50;3.10;;;23.50;49.00;;;;;;5100644;28;20068;-63
2024/03/05 02:15:14;;;;;;;20.23;3.42;;;23.60;49.30;;;;;;5113770;28;20068;-54
2024/03/05 02:17:42;;;;;;;16.77;3.42;;;23.70;49.10;;;;;;5115890;28;20064;-49
2024/03/05 02:20:15;;;;;;;10.35;3.50;;;23.60;49.30;;;;;;5100460;28;20406;-51
2024/03/05 02:22:42;;;;;;;12.40;3.40;;;23.50;49.60;;;;;;5100958;28;20124;-49
2024/03/05 02:25:09;;;;;;;24.05;4.22;;;23.20;49.40;;;;;;5103455;28;20147;-54
2024/03/05 02:27:37;;;;;;;19.77;3.83;;;23.10;49.60;;;;;;5104564;28;20208;-47
2024/03/05 02:30:10;;;;;;;15.52;3.53;;;23.00;50.00;;;;;;5102429;28;20076;-49
2024/03/05 02:32:40;;;;;;;15.98;3.88;;;22.80;50.20;;;;;;5103726;28;20071;-49
2024/03/05 02:35:08;;;;;;;15.63;3.65;;;22.90;50.50;;;;;;5108226;28;20069;-49
2024/03/05 02:37:41;;;;;;;21.15;3.40;;;22.90;50.30;;;;;;5107101;28;20069;-49
2024/03/05 02:40:13;;;;;;;10.80;3.50;;;23.00;50.20;;;;;;5107656;28;20072;-48
2024/03/05 02:42:40;;;;;;;14.63;3.97;;;22.80;50.50;;;;;;5101840;28;20096;-52
2024/03/05 02:45:08;;;;;;;19.58;3.53;;;22.70;50.30;;;;;;5093253;28;20076;-50
2024/03/05 02:47:36;;;;;;;28.02;4.30;;;22.50;50.50;;;;;;5108207;28;20106;-51
2024/03/05 02:50:07;;;;;;;13.52;4.32;;;22.80;50.60;;;;;;5107507;28;20072;-48
2024/03/05 02:52:34;;;;;;;14.80;4.22;;;23.00;50.70;;;;;;5107338;28;20531;-49
2024/03/05 02:55:01;;;;;;;20.05;4.65;;;22.90;50.80;;;;;;5106382;28;20072;-48
2024/03/05 02:57:28;;;;;;;19.77;4.90;;;22.60;50.80;;;;;;5108837;28;20071;-51
2024/03/05 02:59:55;;;;;;;20.30;4.80;;;22.60;51.30;;;;;;5110565;28;20096;-49
2024/03/05 03:02:21;;;;;;;29.88;4.80;;;22.50;51.50;;;;;;5102688;28;20100;-51
2024/03/05 03:04:51;;;;;;;20.50;5.70;;;22.30;52.50;;;;;;5111538;27;20064;-49
2024/03/05 03:07:18;;;;;;;19.80;4.47;;;22.20;52.40;;;;;;5111284;28;20114;-49
2024/03/05 03:09:48;;;;;;;14.98;3.40;;;21.90;52.10;;;;;;5105079;28;20068;-53
2024/03/05 03:12:16;;;;;;;23.45;4.30;;;21.90;52.00;;;;;;5099939;28;20155;-49
2024/03/05 03:14:46;;;;;;;16.85;3.10;;;21.80;52.20;;;;;;5108286;28;20061;-52
2024/03/05 03:17:13;;;;;;;26.33;4.00;;;21.70;52.00;;;;;;5110314;28;20076;-52
2024/03/05 03:19:39;;;;;;;17.70;3.80;;;21.70;52.00;;;;;;5109471;27;20569;-56
2024/03/05 03:22:06;;;;;;;14.45;3.25;;;21.70;51.80;;;;;;5107585;28;20098;-50
2024/03/05 03:24:32;;;;;;;18.40;3.40;;;21.70;51.40;;;;;;5110192;28;20076;-51
2024/03/05 03:26:59;;;;;;;19.13;3.17;;;21.60;51.40;;;;;;5103692;28;20129;-48
2024/03/05 03:29:26;;;;;;;12.45;2.70;;;21.50;51.40;;;;;;5107938;28;20080;-49
2024/03/05 03:31:56;;;;;;;16.30;3.17;;;21.50;51.60;;;;;;5094920;28;20155;-49
2024/03/05 03:34:22;;;;;;;14.00;2.95;;;21.40;51.70;;;;;;5103961;28;20559;-47
2024/03/05 03:36:49;;;;;;;16.88;3.05;;;21.30;51.90;;;;;;5096458;27;20076;-52
2024/03/05 03:39:23;;;;;;;13.27;3.50;;;21.30;52.00;;;;;;5095284;28;20083;-49
2024/03/05 03:41:56;;;;;;;17.92;3.35;;;21.20;52.10;;;;;;5109082;28;20088;-51
2024/03/05 03:44:22;;;;;;;19.70;3.70;;;21.20;52.20;;;;;;5106796;28;20107;-53
2024/03/05 03:46:49;;;;;;;20.02;3.38;;;21.20;52.30;;;;;;5096955;28;20570;-56
2024/03/05 03:49:19;;;;;;;22.67;3.83;;;21.10;52.40;;;;;;5104221;28;20065;-51
2024/03/05 03:51:46;;;;;;;22.75;3.95;;;21.10;52.60;;;;;;5107250;28;20068;-50
2024/03/05 03:54:12;;;;;;;28.75;4.60;;;21.20;52.60;;;;;;5111311;28;20079;-48
2024/03/05 03:56:39;;;;;;;46.80;4.82;;;21.00;52.50;;;;;;5107836;28;20080;-51
2024/03/05 03:59:07;;;;;;;26.48;3.50;;;20.90;52.90;;;;;;5114838;27;20555;-50
2024/03/05 04:01:35;;;;;;;27.27;3.97;;;20.80;53.30;;;;;;5111879;27;20102;-50
2024/03/05 04:04:02;;;;;;;40.30;4.47;;;20.80;53.70;;;;;;5106043;27;20082;-50
2024/03/05 04:06:31;;;;;;;15.18;3.70;;;20.90;54.30;;;;;;5103936;27;20072;-51
2024/03/05 04:08:58;;;;;;;27.38;4.43;;;20.90;53.70;;;;;;5087636;28;20075;-52
2024/03/05 04:11:25;;;;;;;26.90;3.80;;;20.80;53.80;;;;;;5108813;27;20443;-53
2024/03/05 04:13:52;;;;;;;33.10;4.32;;;20.90;53.90;;;;;;5104641;27;20103;-53
2024/03/05 04:16:19;;;;;;;24.50;3.28;;;20.70;53.80;;;;;;5109314;27;20115;-52
2024/03/05 04:18:45;;;;;;;22.70;2.92;;;20.70;54.00;;;;;;5110486;27;20111;-53
2024/03/05 04:21:12;;;;;;;23.38;3.63;;;20.50;53.40;;;;;;5105934;27;20163;-52
2024/03/05 04:23:39;;;;;;;18.60;3.10;;;20.40;53.20;;;;;;5110717;27;20182;-51
2024/03/05 04:26:13;;;;;;;15.80;2.88;;;20.50;52.90;;;;;;5100774;27;20078;-50
2024/03/05 04:28:48;;;;;;;18.88;3.25;;;20.40;53.20;;;;;;5104613;27;20088;-50
2024/03/05 04:31:20;;;;;;;22.70;2.93;;;20.40;52.80;;;;;;5105978;27;20140;-49
2024/03/05 04:33:48;;;;;;;11.82;2.95;;;20.30;53.10;;;;;;5099183;27;20580;-49
2024/03/05 04:36:18;;;;;;;19.90;3.10;;;20.30;53.10;;;;;;5107139;27;20075;-50
2024/03/05 04:38:44;;;;;;;22.40;3.45;;;20.30;53.20;;;;;;5110350;27;20556;-51
2024/03/05 04:41:13;;;;;;;19.77;3.65;;;20.30;53.50;;;;;;5104628;27;20544;-59
2024/03/05 04:43:40;;;;;;;21.58;3.60;;;20.20;53.30;;;;;;5107646;27;20486;-52
2024/03/05 04:46:08;;;;;;;30.98;4.45;;;20.10;53.20;;;;;;5102936;27;20500;-52
2024/03/05 04:48:35;;;;;;;20.02;3.88;;;20.00;53.70;;;;;;5112398;27;20459;-56
2024/03/05 04:51:01;;;;;;;17.38;4.72;;;19.90;55.10;;;;;;5102532;27;20075;-49
2024/03/05 04:53:28;;;;;;;56.38;8.30;;;19.90;54.90;;;;;;5109056;27;20074;-52
2024/03/05 04:55:55;;;;;;;64.15;8.82;;;19.90;54.50;;;;;;5112989;27;20063;-50
2024/03/05 04:58:21;;;;;;;65.45;9.77;;;19.80;54.70;;;;;;5111103;27;20076;-57
2024/03/05 05:00:48;;;;;;;75.88;11.07;;;19.60;55.10;;;;;;5114748;27;20070;-53
2024/03/05 05:03:16;;;;;;;60.80;9.75;;;19.50;55.20;;;;;;5116631;27;20096;-53
2024/03/05 05:05:43;;;;;;;40.75;8.82;;;19.40;55.70;;;;;;5105426;27;20072;-50
2024/03/05 05:08:10;;;;;;;46.88;8.35;;;19.30;55.80;;;;;;5121189;27;20464;-53
2024/03/05 05:10:36;;;;;;;44.03;7.70;;;19.40;56.10;;;;;;5107802;27;20065;-51
2024/03/05 05:13:03;;;;;;;51.35;8.45;;;19.30;57.00;;;;;;5124294;27;20113;-54
2024/03/05 05:15:30;;;;;;;63.78;7.95;;;19.30;56.40;;;;;;5122736;27;20080;-50
2024/03/05 05:17:59;;;;;;;39.85;7.50;;;19.40;57.00;;;;;;5105243;27;20063;-51
2024/03/05 05:20:27;;;;;;;54.20;9.68;;;19.30;56.90;;;;;;5110066;27;20115;-51
2024/03/05 05:22:54;;;;;;;57.72;11.05;;;19.10;57.80;;;;;;5111625;27;20128;-50
2024/03/05 05:25:21;;;;;;;45.97;10.20;;;19.20;57.20;;;;;;5111555;27;20075;-53
2024/03/05 05:27:48;;;;;;;41.38;7.30;;;19.00;57.20;;;;;;5108610;27;20125;-52
2024/03/05 05:30:23;;;;;;;56.45;8.10;;;18.70;57.20;;;;;;5106009;27;20074;-54
2024/03/05 05:32:50;;;;;;;44.00;8.35;;;18.70;57.30;;;;;;5113519;27;20111;-50
2024/03/05 05:35:17;;;;;;;51.70;8.38;;;18.70;58.00;;;;;;5107710;27;20129;-53
2024/03/05 05:37:44;;;;;;;63.65;9.02;;;18.60;58.70;;;;;;5108841;27;20071;-49
2024/03/05 05:40:11;;;;;;;42.92;8.05;;;18.80;58.10;;;;;;5102814;27;20133;-48
2024/03/05 05:42:40;;;;;;;42.55;7.28;;;18.80;58.20;;;;;;5107946;27;20169;-50
2024/03/05 05:45:11;;;;;;;53.15;7.13;;;18.80;58.90;;;;;;5108009;27;20492;-48
2024/03/05 05:47:57;;;;;;;45.85;7.85;;;18.60;58.10;;;;;;5108214;27;20529;-51
2024/03/05 05:50:34;;;;;;;57.13;8.75;;;18.40;58.00;;;;;;5108236;27;20072;-49
2024/03/05 05:53:00;;;;;;;44.10;8.65;;;18.40;58.40;;;;;;5102496;28;20068;-48
2024/03/05 05:55:27;;;;;;;48.53;7.90;;;18.40;59.20;;;;;;5105957;28;20064;-50
2024/03/05 05:57:54;;;;;;;54.88;9.68;;;18.40;59.30;;;;;;5106702;28;20064;-52
2024/03/05 06:00:35;;;;;;;58.05;8.23;;;18.20;58.80;;;;;;5107992;28;20064;-49
2024/03/05 06:03:12;;;;;;;58.10;9.68;;;18.10;59.20;;;;;;5100617;28;20089;-50
2024/03/05 06:05:42;;;;;;;55.53;10.30;;;18.00;59.90;;;;;;5098947;28;20129;-52
2024/03/05 06:08:11;;;;;;;42.40;9.52;;;18.10;59.40;;;;;;5107270;28;20402;-49
2024/03/05 06:10:38;;;;;;;48.65;9.95;;;18.00;59.90;;;;;;5108701;28;20064;-52
2024/03/05 06:13:06;;;;;;;50.25;10.38;;;18.00;59.20;;;;;;5108635;28;20103;-49
2024/03/05 06:15:34;;;;;;;54.65;10.07;;;18.00;59.90;;;;;;5093459;28;20073;-52
2024/03/05 06:18:00;;;;;;;51.63;11.40;;;17.80;60.10;;;;;;5100836;28;20092;-50
2024/03/05 06:20:27;;;;;;;64.72;11.00;;;17.80;60.60;;;;;;5106053;28;20115;-49
2024/03/05 06:22:54;;;;;;;48.75;13.07;;;17.80;60.50;;;;;;5107081;28;20104;-51
2024/03/05 06:25:21;;;;;;;74.65;13.13;;;17.90;60.20;;;;;;5106683;28;20441;-50
2024/03/05 06:27:47;;;;;;;63.78;14.45;;;17.80;60.30;;;;;;5106242;28;20151;-53
2024/03/05 06:30:18;;;;;;;53.00;14.35;;;17.70;60.10;;;;;;5106516;28;20072;-50
2024/03/05 06:32:49;;;;;;;45.42;13.50;;;17.80;60.80;;;;;;5106409;28;20072;-59
2024/03/05 06:35:17;;;;;;;56.95;13.77;;;17.80;60.50;;;;;;5110082;28;20080;-55
2024/03/05 06:37:45;;;;;;;69.55;14.90;;;17.60;60.30;;;;;;5106415;28;20517;-55
2024/03/05 06:40:13;;;;;;;66.28;14.88;;;17.50;60.90;;;;;;5109935;28;20076;-54
2024/03/05 06:43:32;;;;;;;63.22;16.55;;;17.40;60.50;;;;;;5109759;28;20127;-49
2024/03/05 06:45:27;;;;;;;77.18;20.38;;;17.40;60.70;;;;;;5099969;28;20575;-51
2024/03/05 06:47:57;;;;;;;81.55;34.25;;;17.40;61.30;;;;;;5108283;28;20068;-52
2024/03/05 06:50:33;;;;;;;63.50;16.75;;;17.40;62.10;;;;;;5101682;28;20561;-49
2024/03/05 06:58:37;;;;;;;70.90;17.10;;;17.30;62.20;;;;;;5102235;28;20125;-49
2024/03/05 07:01:07;;;;;;;74.47;15.90;;;17.40;61.90;;;;;;5110124;27;20109;-49
2024/03/05 07:03:40;;;;;;;75.10;15.48;;;17.30;62.70;;;;;;5109646;28;20510;-51
2024/03/05 07:06:09;;;;;;;81.05;16.80;;;17.40;62.60;;;;;;5103955;28;20104;-49
2024/03/05 07:08:41;;;;;;;102.70;31.63;;;17.30;63.40;;;;;;5104931;28;20087;-50
2024/03/05 07:11:09;;;;;;;71.57;17.23;;;17.20;62.80;;;;;;5105222;28;20076;-53
2024/03/05 07:13:36;;;;;;;69.30;15.90;;;17.20;62.60;;;;;;5110127;28;20072;-56
2024/03/05 07:16:13;;;;;;;70.55;13.63;;;17.20;62.50;;;;;;5103888;28;20068;-52
2024/03/05 07:18:40;;;;;;;54.85;12.35;;;17.20;61.90;;;;;;5108001;28;20154;-53
2024/03/05 07:21:07;;;;;;;49.65;10.45;;;17.20;61.80;;;;;;5110533;28;20414;-47
2024/03/05 07:23:34;;;;;;;50.38;10.73;;;17.40;61.50;;;;;;5104200;28;20072;-48
2024/03/05 07:26:00;;;;;;;48.10;10.18;;;17.40;61.20;;;;;;5093619;28;20069;-49
2024/03/05 07:28:27;;;;;;;43.15;10.32;;;17.30;61.20;;;;;;5109293;28;20072;-48
2024/03/05 07:30:54;;;;;;;51.67;10.10;;;17.40;60.70;;;;;;5100929;28;20413;-52
2024/03/05 07:33:23;;;;;;;45.10;9.90;;;17.30;60.90;;;;;;5103320;28;20069;-51
2024/03/05 07:35:49;;;;;;;54.90;14.45;;;17.20;61.00;;;;;;5108805;28;20472;-53
2024/03/05 07:38:16;;;;;;;56.83;21.88;;;17.20;60.90;;;;;;5109112;28;20559;-47
2024/03/05 07:40:45;;;;;;;58.10;24.52;;;17.20;61.10;;;;;;5109282;28;20414;-50
2024/03/05 07:43:11;;;;;;;62.58;26.95;;;17.20;61.50;;;;;;5097934;28;20131;-50
2024/03/05 07:45:39;;;;;;;60.25;24.83;;;17.20;61.30;;;;;;5096268;28;20072;-51
2024/03/05 07:48:05;;;;;;;47.20;24.55;;;17.00;61.40;;;;;;5110678;28;20140;-51
2024/03/05 07:50:32;;;;;;;50.45;23.52;;;16.90;62.30;;;;;;5106976;28;20072;-53
2024/03/05 07:52:59;;;;;;;39.33;16.67;;;17.00;61.60;;;;;;5110168;28;20099;-49
2024/03/05 07:55:27;;;;;;;45.28;20.67;;;17.00;61.40;;;;;;5100132;28;20077;-52
2024/03/05 07:57:56;;;;;;;32.75;12.98;;;17.00;61.90;;;;;;5109652;28;20096;-49
2024/03/05 08:00:24;;;;;;;40.30;11.40;;;17.00;61.60;;;;;;5105326;28;20072;-49
2024/03/05 08:02:55;;;;;;;37.90;11.65;;;16.90;62.10;;;;;;5108964;28;20140;-50
2024/03/05 08:05:23;;;;;;;23.73;5.10;;;17.00;61.70;;;;;;5107521;28;20064;-51
2024/03/05 08:07:49;;;;;;;20.33;4.65;;;17.00;61.00;;;;;;5112892;28;20121;-48
2024/03/05 08:10:19;;;;;;;17.80;4.45;;;17.00;61.70;;;;;;5115572;28;20068;-49
2024/03/05 08:12:48;;;;;;;16.35;4.00;;;17.00;61.80;;;;;;5105446;28;20072;-58
2024/03/05 08:15:16;;;;;;;19.30;4.28;;;17.10;61.70;;;;;;5101914;28;20108;-48
2024/03/05 08:17:47;;;;;;;15.13;4.13;;;17.00;61.80;;;;;;5104904;28;20529;-51
2024/03/05 08:20:17;;;;;;;11.38;3.67;;;16.90;61.80;;;;;;5105336;28;20108;-56
2024/03/05 08:22:46;;;;;;;14.88;3.42;;;16.90;62.20;;;;;;5106635;28;20122;-53
2024/03/05 08:25:13;;;;;;;13.70;3.47;;;16.80;62.20;;;;;;5107968;28;20072;-53
2024/03/05 08:27:44;;;;;;;15.50;3.30;;;16.60;62.50;;;;;;5108046;28;20129;-52
2024/03/05 08:30:17;;;;;;;19.80;3.30;;;16.70;62.90;;;;;;5101274;28;20527;-52
2024/03/05 08:32:44;;;;;;;16.77;3.30;;;16.70;62.90;;;;;;5106963;28;20072;-52
2024/03/05 08:35:11;;;;;;;18.55;2.85;;;16.70;63.20;;;;;;5110292;28;20087;-50
2024/03/05 08:37:43;;;;;;;15.02;2.90;;;16.70;63.60;;;;;;5099407;28;20518;-48
2024/03/05 08:40:19;;;;;;;15.35;4.28;;;16.60;64.50;;;;;;5110030;28;20083;-50
2024/03/05 08:42:47;;;;;;;14.93;4.15;;;16.50;64.00;;;;;;5105463;28;20095;-52
2024/03/05 08:45:22;;;;;;;15.73;4.10;;;16.50;64.40;;;;;;5108688;28;20092;-52
2024/03/05 08:47:50;;;;;;;14.93;4.10;;;16.50;64.40;;;;;;5108805;28;20446;-50
2024/03/05 08:50:18;;;;;;;15.05;4.30;;;16.50;65.10;;;;;;5109176;28;20209;-50
2024/03/05 08:52:44;;;;;;;23.02;3.95;;;16.40;65.00;;;;;;5107433;28;20074;-48
2024/03/05 08:55:15;;;;;;;11.70;3.65;;;16.30;65.10;;;;;;5108244;28;20072;-53
2024/03/05 08:57:42;;;;;;;15.00;3.55;;;16.30;65.20;;;;;;5107185;27;20064;-50
2024/03/05 09:00:29;;;;;;;10.95;2.72;;;16.40;65.20;;;;;;5100956;28;20068;-50
2024/03/05 09:02:56;;;;;;;10.13;3.10;;;16.40;65.50;;;;;;5108537;28;20099;-54
2024/03/05 09:05:22;;;;;;;12.23;3.15;;;16.30;65.50;;;;;;5109485;28;20068;-54
2024/03/05 09:07:50;;;;;;;12.10;3.08;;;16.10;66.10;;;;;;5100367;28;20111;-51
2024/03/05 09:10:17;;;;;;;12.02;3.03;;;16.20;66.00;;;;;;5103000;28;20117;-52
2024/03/05 09:12:44;;;;;;;16.30;2.85;;;16.10;66.30;;;;;;5102341;28;20159;-51
2024/03/05 09:15:12;;;;;;;7.00;2.20;;;16.10;66.20;;;;;;5102953;28;20076;-51
2024/03/05 09:17:38;;;;;;;9.07;2.47;;;16.10;66.40;;;;;;5103773;28;20072;-50
2024/03/05 09:20:14;;;;;;;13.85;2.47;;;16.10;66.80;;;;;;5103171;28;20131;-50
2024/03/05 09:22:45;;;;;;;12.70;2.10;;;16.00;66.90;;;;;;5109549;28;20191;-52
2024/03/05 09:25:15;;;;;;;4.80;2.25;;;16.00;67.20;;;;;;5103611;28;20064;-53
2024/03/05 09:27:44;;;;;;;9.40;2.00;;;16.00;67.30;;;;;;5109872;28;20080;-51
2024/03/05 09:30:13;;;;;;;6.15;1.88;;;15.80;67.60;;;;;;5108138;28;20071;-51
2024/03/05 09:32:42;;;;;;;8.00;1.88;;;15.80;67.90;;;;;;5108978;28;20081;-51
2024/03/05 09:35:09;;;;;;;8.45;1.80;;;15.80;68.10;;;;;;5105959;28;20079;-48
2024/03/05 09:37:36;;;;;;;6.53;1.83;;;15.80;68.00;;;;;;5104196;28;20122;-51
2024/03/05 09:40:06;;;;;;;9.02;2.20;;;15.70;68.40;;;;;;5096259;28;20121;-49
2024/03/05 09:42:33;;;;;;;9.68;2.10;;;15.80;68.60;;;;;;5101141;28;20100;-52
2024/03/05 09:45:05;;;;;;;4.80;2.00;;;15.80;68.60;;;;;;5098829;28;20065;-51
2024/03/05 09:47:35;;;;;;;8.10;1.88;;;15.80;68.70;;;;;;5106104;28;20079;-53
2024/03/05 09:50:04;;;;;;;10.55;1.80;;;15.80;69.60;;;;;;5102051;28;20549;-58
2024/03/05 09:52:32;;;;;;;10.10;2.05;;;15.80;69.60;;;;;;5089234;28;20075;-52
2024/03/05 09:55:00;;;;;;;6.82;1.77;;;15.70;69.90;;;;;;5097860;28;20463;-52
2024/03/05 09:57:29;;;;;;;9.02;2.22;;;15.60;69.90;;;;;;5103028;28;20159;-49
2024/03/05 09:59:56;;;;;;;7.07;2.03;;;15.70;69.80;;;;;;5100720;28;20194;-49
2024/03/05 10:02:23;;;;;;;4.72;1.63;;;15.70;69.50;;;;;;5105210;28;20576;-50
2024/03/05 10:04:53;;;;;;;6.60;1.65;;;15.70;69.60;;;;;;5113013;28;20541;-50
2024/03/05 10:07:26;;;;;;;4.85;1.70;;;15.70;69.90;;;;;;5111861;28;20068;-51
2024/03/05 10:10:12;;;;;;;5.90;1.48;;;15.70;69.50;;;;;;5102333;28;20080;-52
2024/03/05 10:12:42;;;;;;;10.55;2.55;;;15.70;69.50;;;;;;5110604;28;20079;-50
2024/03/05 10:15:20;;;;;;;6.53;2.00;;;15.60;69.60;;;;;;5100221;28;20064;-49
2024/03/05 10:17:49;;;;;;;8.00;2.30;;;15.50;69.80;;;;;;5095743;28;20079;-52
2024/03/05 10:20:28;;;;;;;8.18;2.17;;;15.50;70.40;;;;;;5110771;28;20461;-51
2024/03/05 10:22:59;;;;;;;5.25;2.03;;;15.50;70.50;;;;;;5112403;28;20118;-50
2024/03/05 10:25:27;;;;;;;5.68;1.63;;;15.50;70.40;;;;;;5112962;27;20449;-52
2024/03/05 10:27:54;;;;;;;8.52;2.08;;;15.50;70.20;;;;;;5105951;28;20130;-50
2024/03/05 10:30:42;;;;;;;6.43;2.00;;;15.40;70.40;;;;;;5102061;28;20072;-49
2024/03/05 10:33:09;;;;;;;11.50;1.77;;;15.40;70.70;;;;;;5103690;28;20075;-50
2024/03/05 10:35:41;;;;;;;9.27;2.13;;;15.30;70.80;;;;;;5111292;28;20068;-51
2024/03/05 10:38:16;;;;;;;11.05;1.90;;;15.30;71.20;;;;;;5109208;28;20080;-50
2024/03/05 10:40:46;;;;;;;10.75;2.13;;;15.40;70.80;;;;;;5112371;28;20063;-49
2024/03/05 10:43:16;;;;;;;7.32;2.00;;;15.30;70.80;;;;;;5109176;28;20100;-60
2024/03/05 10:45:44;;;;;;;6.72;1.77;;;15.30;71.40;;;;;;5111467;28;20064;-54
2024/03/05 10:48:14;;;;;;;7.88;1.95;;;15.30;72.40;;;;;;5094137;28;20076;-52
2024/03/05 10:50:44;;;;;;;6.10;1.90;;;15.30;72.70;;;;;;5112305;28;20068;-48
2024/03/05 10:53:13;;;;;;;7.45;2.28;;;15.30;72.20;;;;;;5111159;28;20072;-49
2024/03/05 10:55:43;;;;;;;7.47;2.17;;;15.40;72.00;;;;;;5111547;28;20068;-53
2024/03/05 11:00:40;;;;;;;10.75;2.50;;;15.30;72.80;;;;;;5110802;28;20060;-49
2024/03/05 11:03:09;;;;;;;13.02;2.58;;;15.10;72.70;;;;;;5111716;28;20114;-51
2024/03/05 11:05:52;;;;;;;6.32;2.35;;;14.90;73.20;;;;;;5109295;28;20064;-50
2024/03/05 11:08:20;;;;;;;11.95;2.55;;;14.90;74.10;;;;;;5112574;28;20079;-49
2024/03/05 11:11:03;;;;;;;18.00;3.40;;;14.80;75.10;;;;;;5111746;28;20149;-51
2024/03/05 11:13:32;;;;;;;15.70;3.08;;;14.80;75.20;;;;;;5108782;28;20079;-48
2024/03/05 11:16:03;;;;;;;13.77;2.97;;;14.90;75.20;;;;;;5101831;28;20095;-52
2024/03/05 11:18:40;;;;;;;13.45;3.05;;;15.00;75.00;;;;;;5099577;28;20069;-51
2024/03/05 11:21:10;;;;;;;;;;;15.00;75.30;;;;;;5111394;28;20166;-48
2024/03/05 11:23:51;;;;;;;14.93;3.15;;;14.90;75.00;;;;;;5111020;28;20088;-49
2024/03/05 11:26:19;;;;;;;12.30;3.05;;;15.00;74.60;;;;;;5110642;28;20155;-50
2024/03/05 11:28:47;;;;;;;11.70;3.20;;;14.90;74.70;;;;;;5105259;28;20079;-50
2024/03/05 11:31:19;;;;;;;11.88;2.33;;;14.90;75.20;;;;;;5105351;28;20100;-50
2024/03/05 11:33:46;;;;;;;15.65;2.58;;;15.00;75.00;;;;;;5106521;28;20202;-49
2024/03/05 11:36:21;;;;;;;11.20;2.47;;;14.90;75.10;;;;;;5111629;28;20161;-52
2024/03/05 11:39:03;;;;;;;9.98;2.22;;;14.80;75.30;;;;;;5111399;28;20582;-52
2024/03/05 11:41:37;;;;;;;12.55;2.35;;;14.70;75.50;;;;;;5108311;28;20095;-53
2024/03/05 11:44:05;;;;;;;15.55;2.50;;;14.70;75.30;;;;;;5103323;28;20090;-53
2024/03/05 11:46:40;;;;;;;14.57;2.50;;;14.70;75.30;;;;;;5108366;28;20068;-49
2024/03/05 11:49:09;;;;;;;10.48;2.25;;;14.50;76.00;;;;;;5106435;28;20078;-50
2024/03/05 11:51:35;;;;;;;11.98;2.70;;;14.50;76.60;;;;;;5100535;28;20527;-52
2024/03/05 11:54:02;;;;;;;6.97;2.17;;;14.70;76.10;;;;;;5109507;28;20080;-49
2024/03/05 11:56:28;;;;;;;15.75;3.30;;;14.60;76.20;;;;;;5110218;28;20075;-49
2024/03/05 11:58:56;;;;;;;11.35;2.88;;;14.60;76.70;;;;;;5107261;28;20225;-47
2024/03/05 12:01:23;;;;;;;17.55;3.40;;;14.50;76.70;;;;;;5101210;28;20072;-54
2024/03/05 12:04:06;;;;;;;13.45;3.88;;;14.40;76.70;;;;;;5109066;28;20103;-47
2024/03/05 12:06:34;;;;;;;13.10;3.53;;;14.20;77.30;;;;;;5104957;28;20187;-48
2024/03/05 12:09:18;;;;;;;15.93;4.30;;;14.20;78.30;;;;;;5106601;28;20064;-56
2024/03/05 12:12:05;;;;;;;16.63;5.75;;;14.30;78.40;;;;;;5110683;28;20595;-53
2024/03/05 12:14:35;;;;;;;23.83;6.38;;;14.20;77.90;;;;;;5106601;28;20455;-51
2024/03/05 12:17:04;;;;;;;25.75;6.65;;;14.20;78.30;;;;;;5103409;28;20192;-53
2024/03/05 12:19:31;;;;;;;17.67;6.38;;;14.20;78.40;;;;;;5102860;28;20112;-52
2024/03/05 12:21:59;;;;;;;21.00;6.40;;;14.20;79.20;;;;;;5109870;28;20092;-50
2024/03/05 12:24:28;;;;;;;22.55;6.72;;;14.20;78.80;;;;;;5109824;28;20072;-51
2024/03/05 12:26:56;;;;;;;20.17;7.35;;;14.40;78.40;;;;;;5102628;28;20074;-54
2024/03/05 12:29:33;;;;;;;17.35;6.95;;;14.40;77.90;;;;;;5096597;28;20091;-49
2024/03/05 12:32:13;;;;;;;25.38;8.18;;;14.30;77.80;;;;;;5090858;28;20072;-48
2024/03/05 12:34:42;;;;;;;22.92;7.68;;;14.30;78.00;;;;;;5106366;28;20071;-49
2024/03/05 12:37:11;;;;;;;26.42;9.25;;;14.30;78.40;;;;;;5096407;28;20071;-50
2024/03/05 12:39:39;;;;;;;33.83;12.38;;;14.20;78.40;;;;;;5099992;28;20065;-48
2024/03/05 12:42:13;;;;;;;40.00;13.60;;;14.20;78.70;;;;;;5109593;28;20103;-50
2024/03/05 12:44:40;;;;;;;45.92;12.32;;;14.20;78.50;;;;;;5109760;28;20072;-50
2024/03/05 12:47:11;;;;;;;31.88;12.82;;;14.10;78.60;;;;;;5108759;28;20398;-51
2024/03/05 12:49:44;;;;;;;42.58;14.65;;;14.10;78.70;;;;;;5100723;28;20159;-49
2024/03/05 12:52:12;;;;;;;48.83;16.48;;;14.10;79.00;;;;;;5103157;28;20150;-49
2024/03/05 12:54:38;;;;;;;51.80;19.48;;;14.10;79.20;;;;;;5097546;28;20068;-50